Time,TemperatureF,DewpointF,PressureIn,WindDirection,WindDirectionDegrees,WindSpeedMPH,WindSpeedGustMPH,Humidity,HourlyPrecipIn,Conditions,Clouds,dailyrainin,SoftwareType,DateUTC
2013-05-03 00:01:00,36.7,28.9,30.39,North,0,0.0,0.0,73,0.00,,---,0.00,VWS V14.01,2013-05-03 05:01:00,
2013-05-03 00:06:00,36.7,28.9,30.39,NNW,338,1.3,3.1,73,0.00,,---,0.00,VWS V14.01,2013-05-03 05:06:00,
2013-05-03 00:11:00,36.7,28.9,30.39,NNW,338,1.3,1.3,73,0.00,,---,0.00,VWS V14.01,2013-05-03 05:11:00,
2013-05-03 00:16:00,36.7,29.2,30.39,NNW,338,1.6,3.1,74,0.00,,---,0.00,VWS V14.01,2013-05-03 05:16:00,
2013-05-03 00:21:00,36.7,29.5,30.39,NNW,338,0.0,0.0,75,0.00,,---,0.00,VWS V14.01,2013-05-03 05:21:00,
2013-05-03 00:26:00,36.7,29.5,30.39,NNW,338,3.4,3.4,75,0.00,,---,0.00,VWS V14.01,2013-05-03 05:26:00,
2013-05-03 00:31:00,36.9,29.7,30.39,WNW,292,0.0,2.2,75,0.00,,---,0.00,VWS V14.01,2013-05-03 05:31:00,
2013-05-03 00:36:00,36.9,29.7,30.39,NNW,338,0.0,0.0,75,0.00,,---,0.00,VWS V14.01,2013-05-03 05:36:00,
2013-05-03 00:41:00,36.9,29.7,30.39,NW,315,0.9,3.8,75,0.00,,---,0.00,VWS V14.01,2013-05-03 05:41:00,
2013-05-03 00:46:00,37.0,30.2,30.39,NNW,338,0.0,3.4,76,0.00,,---,0.00,VWS V14.01,2013-05-03 05:46:00,
2013-05-03 00:51:00,37.4,30.5,30.39,North,0,2.7,3.1,76,0.00,,---,0.00,VWS V14.01,2013-05-03 05:51:00,
2013-05-03 00:56:00,37.6,30.7,30.39,NW,315,3.4,3.4,76,0.00,,---,0.00,VWS V14.01,2013-05-03 05:56:00,
2013-05-03 01:01:00,37.8,30.6,30.39,NNW,338,4.9,4.9,75,0.00,,---,0.00,VWS V14.01,2013-05-03 06:01:00,
2013-05-03 01:06:00,37.8,30.6,30.39,North,0,2.5,3.4,75,0.00,,---,0.00,VWS V14.01,2013-05-03 06:06:00,
2013-05-03 01:11:00,37.8,30.6,30.39,NNW,338,1.6,5.4,75,0.00,,---,0.00,VWS V14.01,2013-05-03 06:11:00,
2013-05-03 01:16:00,37.6,30.4,30.39,North,0,0.0,3.4,75,0.00,,---,0.00,VWS V14.01,2013-05-03 06:16:00,
2013-05-03 01:21:00,37.6,30.4,30.39,NNW,338,2.7,2.7,75,0.00,,---,0.00,VWS V14.01,2013-05-03 06:21:00,
2013-05-03 01:26:00,37.4,30.2,30.39,NW,315,3.1,4.9,75,0.00,,---,0.00,VWS V14.01,2013-05-03 06:26:00,
2013-05-03 01:31:00,37.4,30.2,30.39,NNW,338,3.6,4.3,75,0.00,,---,0.00,VWS V14.01,2013-05-03 06:31:00,
2013-05-03 01:36:00,37.4,30.2,30.39,NNW,338,1.6,3.6,75,0.00,,---,0.00,VWS V14.01,2013-05-03 06:36:00,
2013-05-03 01:41:00,37.2,30.4,30.39,NNW,338,2.9,3.8,76,0.00,,---,0.00,VWS V14.01,2013-05-03 06:41:00,
2013-05-03 01:46:00,37.0,30.2,30.39,NNW,338,3.4,3.4,76,0.00,,---,0.00,VWS V14.01,2013-05-03 06:46:00,
2013-05-03 01:51:00,37.0,29.9,30.39,North,0,4.0,4.7,75,0.00,,---,0.00,VWS V14.01,2013-05-03 06:51:00,
2013-05-03 01:56:00,37.0,29.9,30.39,North,0,3.6,4.3,75,0.00,,---,0.00,VWS V14.01,2013-05-03 06:56:00,
2013-05-03 02:01:00,37.0,29.9,30.39,NNW,338,4.0,5.8,75,0.00,,---,0.00,VWS V14.01,2013-05-03 07:01:00,
2013-05-03 02:06:00,37.0,29.9,30.39,NW,315,2.5,2.7,75,0.00,,---,0.00,VWS V14.01,2013-05-03 07:06:00,
2013-05-03 02:11:00,36.9,29.7,30.39,NNW,338,3.6,3.6,75,0.00,,---,0.00,VWS V14.01,2013-05-03 07:11:00,
2013-05-03 02:16:00,36.9,29.7,30.36,North,0,4.9,4.9,75,0.00,,---,0.00,VWS V14.01,2013-05-03 07:16:00,
2013-05-03 02:21:00,36.9,29.7,30.36,North,0,0.0,0.0,75,0.00,,---,0.00,VWS V14.01,2013-05-03 07:21:00,
2013-05-03 02:26:00,36.7,29.5,30.36,NW,315,2.0,5.4,75,0.00,,---,0.00,VWS V14.01,2013-05-03 07:26:00,
2013-05-03 02:31:00,36.9,29.7,30.36,NW,315,3.4,4.3,75,0.00,,---,0.00,VWS V14.01,2013-05-03 07:31:00,
2013-05-03 02:36:00,36.9,29.4,30.36,NW,315,3.1,3.8,74,0.00,,---,0.00,VWS V14.01,2013-05-03 07:36:00,
2013-05-03 02:41:00,36.9,29.4,30.36,NNW,338,2.2,3.8,74,0.00,,---,0.00,VWS V14.01,2013-05-03 07:41:00,
2013-05-03 02:46:00,36.7,29.2,30.33,NNW,338,3.8,4.9,74,0.00,,---,0.00,VWS V14.01,2013-05-03 07:46:00,
2013-05-03 02:51:00,36.9,29.4,30.33,NNE,22,3.1,3.1,74,0.00,,---,0.00,VWS V14.01,2013-05-03 07:51:00,
2013-05-03 02:56:00,36.9,29.4,30.33,NNE,22,4.0,5.4,74,0.00,,---,0.00,VWS V14.01,2013-05-03 07:56:00,
2013-05-03 03:01:00,37.0,29.5,30.33,NNW,338,2.7,5.4,74,0.00,,---,0.00,VWS V14.01,2013-05-03 08:01:00,
2013-05-03 03:06:00,37.0,29.2,30.33,NW,315,4.9,5.8,73,0.00,,---,0.00,VWS V14.01,2013-05-03 08:06:00,
2013-05-03 03:11:00,36.9,29.0,30.33,North,0,2.0,4.0,73,0.00,,---,0.00,VWS V14.01,2013-05-03 08:11:00,
2013-05-03 03:16:00,37.0,28.9,30.33,NW,315,4.3,5.6,72,0.00,,---,0.00,VWS V14.01,2013-05-03 08:16:00,
2013-05-03 03:21:00,37.0,28.9,30.33,NNE,22,3.8,6.3,72,0.00,,---,0.00,VWS V14.01,2013-05-03 08:21:00,
2013-05-03 03:26:00,37.0,28.5,30.33,NNW,338,2.7,4.3,71,0.00,,---,0.00,VWS V14.01,2013-05-03 08:26:00,
2013-05-03 03:31:00,36.9,28.4,30.33,North,0,4.9,4.9,71,0.00,,---,0.00,VWS V14.01,2013-05-03 08:31:00,
2013-05-03 03:36:00,36.9,28.4,30.33,North,0,1.6,7.2,71,0.00,,---,0.00,VWS V14.01,2013-05-03 08:36:00,
2013-05-03 03:41:00,37.0,28.5,30.33,NNE,22,5.4,5.8,71,0.00,,---,0.00,VWS V14.01,2013-05-03 08:41:00,
2013-05-03 03:46:00,37.0,28.5,30.33,NNW,338,3.1,3.8,71,0.00,,---,0.00,VWS V14.01,2013-05-03 08:46:00,
2013-05-03 03:51:00,36.9,28.4,30.33,NNW,338,2.9,3.4,71,0.00,,---,0.00,VWS V14.01,2013-05-03 08:51:00,
2013-05-03 03:56:00,36.7,28.5,30.33,NW,315,4.9,5.4,72,0.00,,---,0.00,VWS V14.01,2013-05-03 08:56:00,
2013-05-03 04:01:00,36.7,28.5,30.33,NNE,22,4.9,4.9,72,0.00,,---,0.00,VWS V14.01,2013-05-03 09:01:00,
2013-05-03 04:06:00,36.7,28.2,30.33,NNW,338,0.9,6.7,71,0.00,,---,0.00,VWS V14.01,2013-05-03 09:06:00,
2013-05-03 04:11:00,36.7,28.2,30.33,NNW,338,6.5,6.5,71,0.00,,---,0.00,VWS V14.01,2013-05-03 09:11:00,
2013-05-03 04:16:00,36.7,28.5,30.33,North,0,2.7,4.7,72,0.00,,---,0.00,VWS V14.01,2013-05-03 09:16:00,
2013-05-03 04:21:00,36.3,28.2,30.33,North,0,2.7,3.4,72,0.00,,---,0.00,VWS V14.01,2013-05-03 09:21:00,
2013-05-03 04:26:00,36.3,28.2,30.33,North,0,5.8,5.8,72,0.00,,---,0.00,VWS V14.01,2013-05-03 09:26:00,
2013-05-03 04:31:00,36.1,28.3,30.30,NW,315,4.0,4.9,73,0.00,,---,0.00,VWS V14.01,2013-05-03 09:31:00,
2013-05-03 04:36:00,36.0,28.2,30.30,NW,315,0.0,3.4,73,0.00,,---,0.00,VWS V14.01,2013-05-03 09:36:00,
2013-05-03 04:41:00,35.8,28.3,30.30,NW,315,6.0,6.0,74,0.00,,---,0.00,VWS V14.01,2013-05-03 09:41:00,
2013-05-03 04:46:00,35.8,28.3,30.33,North,0,2.9,3.6,74,0.00,,---,0.00,VWS V14.01,2013-05-03 09:46:00,
2013-05-03 04:51:00,35.6,28.5,30.33,North,0,2.0,6.0,75,0.00,,---,0.00,VWS V14.01,2013-05-03 09:51:00,
2013-05-03 04:56:00,35.4,28.3,30.33,North,0,2.2,3.1,75,0.00,,---,0.00,VWS V14.01,2013-05-03 09:56:00,
2013-05-03 05:01:00,35.2,28.5,30.33,NNW,338,0.0,0.0,76,0.00,,---,0.00,VWS V14.01,2013-05-03 10:01:00,
2013-05-03 05:06:00,35.1,28.3,30.33,NNW,338,3.8,4.9,76,0.00,,---,0.00,VWS V14.01,2013-05-03 10:06:00,
2013-05-03 05:11:00,34.9,28.1,30.33,WNW,292,1.1,3.6,76,0.00,,---,0.00,VWS V14.01,2013-05-03 10:11:00,
2013-05-03 05:16:00,34.9,28.4,30.33,NNW,338,0.0,5.8,77,0.00,,---,0.00,VWS V14.01,2013-05-03 10:16:00,
2013-05-03 05:21:00,34.7,28.2,30.33,NW,315,0.0,6.0,77,0.00,,---,0.00,VWS V14.01,2013-05-03 10:21:00,
2013-05-03 05:26:00,34.5,28.4,30.33,NNE,22,4.9,4.9,78,0.00,,---,0.00,VWS V14.01,2013-05-03 10:26:00,
2013-05-03 05:31:00,34.5,28.4,30.33,NNW,338,0.0,3.8,78,0.00,,---,0.00,VWS V14.01,2013-05-03 10:31:00,
2013-05-03 05:36:00,34.5,28.4,30.33,North,0,6.5,6.5,78,0.00,,---,0.00,VWS V14.01,2013-05-03 10:36:00,
2013-05-03 05:41:00,34.5,28.4,30.33,NNW,338,2.7,2.9,78,0.00,,---,0.00,VWS V14.01,2013-05-03 10:41:00,
2013-05-03 05:46:00,34.5,28.4,30.33,NW,315,3.1,4.3,78,0.00,,---,0.00,VWS V14.01,2013-05-03 10:46:00,
2013-05-03 05:51:00,34.3,28.2,30.33,NW,315,2.2,4.7,78,0.00,,---,0.00,VWS V14.01,2013-05-03 10:51:00,
2013-05-03 05:56:00,34.5,28.1,30.33,NNW,338,5.4,5.4,77,0.00,,---,0.00,VWS V14.01,2013-05-03 10:56:00,
2013-05-03 06:01:00,34.7,28.2,30.33,North,0,4.3,6.5,77,0.00,,---,0.00,VWS V14.01,2013-05-03 11:01:00,
2013-05-03 06:06:00,34.7,27.9,30.33,NNW,338,3.4,4.7,76,0.00,,---,0.00,VWS V14.01,2013-05-03 11:06:00,
2013-05-03 06:11:00,34.9,27.8,30.33,North,0,3.4,4.9,75,0.00,,---,0.00,VWS V14.01,2013-05-03 11:11:00,
2013-05-03 06:16:00,34.9,27.8,30.33,North,0,5.8,8.1,75,0.00,,---,0.00,VWS V14.01,2013-05-03 11:16:00,
2013-05-03 06:21:00,35.1,27.6,30.33,NNW,338,2.9,6.9,74,0.00,,---,0.00,VWS V14.01,2013-05-03 11:21:00,
2013-05-03 06:26:00,34.9,27.5,30.33,NW,315,3.6,5.4,74,0.00,,---,0.00,VWS V14.01,2013-05-03 11:26:00,
2013-05-03 06:31:00,34.9,27.5,30.33,NNW,338,5.4,7.4,74,0.00,,---,0.00,VWS V14.01,2013-05-03 11:31:00,
2013-05-03 06:36:00,35.1,27.3,30.33,NNW,338,6.5,8.1,73,0.00,,---,0.00,VWS V14.01,2013-05-03 11:36:00,
2013-05-03 06:41:00,35.1,27.3,30.33,North,0,4.7,4.7,73,0.00,,---,0.00,VWS V14.01,2013-05-03 11:41:00,
2013-05-03 06:46:00,35.2,27.5,30.33,NNW,338,6.0,6.0,73,0.00,,---,0.00,VWS V14.01,2013-05-03 11:46:00,
2013-05-03 06:52:00,35.6,27.5,30.33,NNW,338,6.0,6.7,72,0.00,,---,1.08,VWS V14.01,2013-05-03 11:52:00,
2013-05-03 06:57:00,35.6,27.5,30.33,North,0,4.0,5.8,72,0.00,,---,1.08,VWS V14.01,2013-05-03 11:57:00,
2013-05-03 07:02:00,35.8,27.6,30.36,NNE,22,5.8,5.8,72,0.00,,---,1.08,VWS V14.01,2013-05-03 12:02:00,
2013-05-03 07:07:00,35.8,27.6,30.36,NNW,338,2.7,4.7,72,0.00,,---,1.08,VWS V14.01,2013-05-03 12:07:00,
2013-05-03 07:13:00,36.3,28.2,30.30,NNW,338,6.0,6.0,72,0.00,,---,1.08,VWS V14.01,2013-05-03 12:13:00,
2013-05-03 07:18:00,36.7,28.2,30.30,North,0,2.7,4.0,71,0.00,,---,1.08,VWS V14.01,2013-05-03 12:18:00,
2013-05-03 07:23:00,37.0,28.2,30.30,North,0,2.7,7.2,70,0.00,,---,1.08,VWS V14.01,2013-05-03 12:23:00,
2013-05-03 07:28:00,37.4,27.8,30.33,NNE,22,4.3,7.8,68,0.00,,---,1.08,VWS V14.01,2013-05-03 12:28:00,
2013-05-03 07:34:00,37.8,27.8,30.33,NNW,338,5.6,6.5,67,0.00,,---,1.08,VWS V14.01,2013-05-03 12:34:00,
2013-05-03 07:39:00,38.3,28.3,30.33,NW,315,6.3,6.5,67,0.00,,---,1.08,VWS V14.01,2013-05-03 12:39:00,
2013-05-03 07:44:00,38.7,27.9,30.33,NW,315,7.4,7.4,65,0.00,,---,1.08,VWS V14.01,2013-05-03 12:44:00,
2013-05-03 07:50:00,39.2,28.1,30.33,NNW,338,7.6,7.6,64,0.00,,---,1.08,VWS V14.01,2013-05-03 12:50:00,
2013-05-03 07:56:00,39.4,27.9,30.33,North,0,3.1,4.0,63,0.00,,---,1.08,VWS V14.01,2013-05-03 12:56:00,
2013-05-03 08:01:00,39.9,27.6,30.33,NW,315,6.3,6.3,61,0.00,,---,1.08,VWS V14.01,2013-05-03 13:01:00,
2013-05-03 08:06:00,40.5,27.7,30.33,NNW,338,8.5,9.4,60,0.00,,---,1.08,VWS V14.01,2013-05-03 13:06:00,
2013-05-03 08:11:00,40.5,27.3,30.33,NW,315,8.5,10.3,59,0.00,,---,1.08,VWS V14.01,2013-05-03 13:11:00,
2013-05-03 08:17:00,41.4,27.7,30.33,North,0,8.7,8.7,58,0.00,,---,1.08,VWS V14.01,2013-05-03 13:17:00,
2013-05-03 08:22:00,42.1,27.5,30.33,North,0,3.8,8.1,56,0.00,,---,1.08,VWS V14.01,2013-05-03 13:22:00,
2013-05-03 08:27:00,42.1,27.1,30.33,North,0,11.0,11.2,55,0.00,,---,1.08,VWS V14.01,2013-05-03 13:27:00,
2013-05-03 08:32:00,42.8,27.3,30.33,North,0,7.2,7.2,54,0.00,,---,1.08,VWS V14.01,2013-05-03 13:32:00,
2013-05-03 08:38:00,43.7,27.7,30.33,North,0,10.1,10.1,53,0.00,,---,1.08,VWS V14.01,2013-05-03 13:38:00,
2013-05-03 08:43:00,44.2,28.2,30.33,WNW,292,3.4,7.6,53,0.00,,---,1.08,VWS V14.01,2013-05-03 13:43:00,
2013-05-03 08:48:00,44.6,28.1,30.33,NW,315,4.3,8.5,52,0.00,,---,1.08,VWS V14.01,2013-05-03 13:48:00,
2013-05-03 08:53:00,44.2,26.8,30.33,North,0,12.3,12.3,50,0.00,,---,1.08,VWS V14.01,2013-05-03 13:53:00,
2013-05-03 08:59:00,45.0,27.5,30.33,NNW,338,9.6,10.3,50,0.00,,---,1.08,VWS V14.01,2013-05-03 13:59:00,
2013-05-03 09:04:00,45.3,27.8,30.33,North,0,7.6,8.1,50,0.00,,---,1.08,VWS V14.01,2013-05-03 14:04:00,
2013-05-03 09:09:00,45.9,28.3,30.33,North,0,8.1,9.0,50,0.00,,---,1.08,VWS V14.01,2013-05-03 14:09:00,
2013-05-03 09:14:00,46.2,28.1,30.30,NNW,338,6.5,10.3,49,0.00,,---,1.08,VWS V14.01,2013-05-03 14:14:00,
2013-05-03 09:20:00,46.4,27.8,30.30,North,0,13.2,13.2,48,0.00,,---,1.08,VWS V14.01,2013-05-03 14:20:00,
2013-05-03 09:25:00,46.6,28.0,30.30,North,0,6.5,9.8,48,0.00,,---,1.08,VWS V14.01,2013-05-03 14:25:00,
2013-05-03 09:30:00,47.7,29.0,30.30,North,0,4.9,5.6,48,0.00,,---,1.08,VWS V14.01,2013-05-03 14:30:00,
2013-05-03 09:35:00,48.0,29.3,30.30,NNE,22,5.6,5.8,48,0.00,,---,1.08,VWS V14.01,2013-05-03 14:35:00,
2013-05-03 09:41:00,48.6,28.7,30.30,North,0,3.6,12.8,46,0.00,,---,1.08,VWS V14.01,2013-05-03 14:41:00,
2013-05-03 09:46:00,48.2,27.9,30.27,NNW,338,7.6,12.3,45,0.00,,---,1.08,VWS V14.01,2013-05-03 14:46:00,
2013-05-03 09:51:00,48.0,27.7,30.27,NNW,338,10.7,12.3,45,0.00,,---,1.08,VWS V14.01,2013-05-03 14:51:00,
2013-05-03 09:56:00,48.4,28.0,30.27,NW,315,8.5,11.0,45,0.00,,---,1.08,VWS V14.01,2013-05-03 14:56:00,
2013-05-03 10:02:00,48.9,28.0,30.27,NE,45,7.4,10.5,44,0.00,,---,1.08,VWS V14.01,2013-05-03 15:02:00,
2013-05-03 10:08:00,49.6,28.6,30.27,NW,315,7.2,10.7,44,0.00,,---,1.08,VWS V14.01,2013-05-03 15:08:00,
2013-05-03 10:13:00,49.5,28.5,30.27,NNW,338,5.6,10.7,44,0.00,,---,1.08,VWS V14.01,2013-05-03 15:13:00,
2013-05-03 10:18:00,49.8,28.2,30.27,NNW,338,8.7,11.2,43,0.00,,---,1.08,VWS V14.01,2013-05-03 15:18:00,
2013-05-03 10:23:00,50.7,29.1,30.27,North,0,9.6,9.6,43,0.00,,---,1.08,VWS V14.01,2013-05-03 15:23:00,
2013-05-03 10:28:00,51.1,29.4,30.27,NNW,338,6.5,8.5,43,0.00,,---,1.08,VWS V14.01,2013-05-03 15:28:00,
2013-05-03 10:35:00,51.3,29.0,30.27,NNW,338,5.6,10.3,42,0.00,,---,1.08,VWS V14.01,2013-05-03 15:35:00,
2013-05-03 10:41:00,51.4,29.1,30.27,NNW,338,7.2,9.8,42,0.00,,---,1.08,VWS V14.01,2013-05-03 15:41:00,
2013-05-03 10:46:00,51.6,28.7,30.27,NNW,338,12.3,12.3,41,0.00,,---,1.08,VWS V14.01,2013-05-03 15:46:00,
2013-05-03 10:51:00,52.5,29.5,30.27,NNW,338,7.6,10.3,41,0.00,,---,1.08,VWS V14.01,2013-05-03 15:51:00,
2013-05-03 10:56:00,52.5,28.9,30.27,NNE,22,10.5,10.5,40,0.00,,---,1.08,VWS V14.01,2013-05-03 15:56:00,
2013-05-03 11:01:00,52.3,28.8,30.27,NW,315,7.2,17.0,40,0.00,,---,1.08,VWS V14.01,2013-05-03 16:01:00,
2013-05-03 11:06:00,52.7,28.5,30.27,North,0,8.5,11.0,39,0.00,,---,1.08,VWS V14.01,2013-05-03 16:06:00,
2013-05-03 11:12:00,52.5,28.3,30.27,NNW,338,5.8,10.1,39,0.00,,---,1.08,VWS V14.01,2013-05-03 16:12:00,
2013-05-03 11:17:00,53.6,29.3,30.27,NW,315,3.1,15.2,39,0.00,,---,1.08,VWS V14.01,2013-05-03 16:17:00,
2013-05-03 11:22:00,54.5,29.4,30.27,NNE,22,10.7,10.7,38,0.00,,---,1.08,VWS V14.01,2013-05-03 16:22:00,
2013-05-03 11:27:00,53.6,28.6,30.27,NNE,22,17.5,17.5,38,0.00,,---,1.08,VWS V14.01,2013-05-03 16:27:00,
2013-05-03 11:33:00,53.6,28.6,30.27,NNE,22,11.9,11.9,38,0.00,,---,1.08,VWS V14.01,2013-05-03 16:33:00,
2013-05-03 11:38:00,54.9,29.8,30.27,North,0,8.1,12.8,38,0.00,,---,1.08,VWS V14.01,2013-05-03 16:38:00,
2013-05-03 11:44:00,55.0,30.5,30.24,NNW,338,12.5,12.5,39,0.00,,---,1.08,VWS V14.01,2013-05-03 16:44:00,
2013-05-03 11:49:00,55.0,29.9,30.24,North,0,3.4,11.0,38,0.00,,---,1.08,VWS V14.01,2013-05-03 16:49:00,
2013-05-03 11:54:00,54.5,28.8,30.24,North,0,7.4,10.1,37,0.00,,---,1.08,VWS V14.01,2013-05-03 16:54:00,
2013-05-03 11:59:00,55.2,29.4,30.24,North,0,10.1,10.1,37,0.00,,---,1.08,VWS V14.01,2013-05-03 16:59:00,
2013-05-03 12:04:00,55.9,30.1,30.24,NW,315,10.5,10.5,37,0.00,,---,1.08,VWS V14.01,2013-05-03 17:04:00,
2013-05-03 12:09:00,55.4,29.6,30.24,NNW,338,10.1,10.1,37,0.00,,---,1.08,VWS V14.01,2013-05-03 17:09:00,
2013-05-03 12:14:00,56.3,29.7,30.24,NW,315,8.1,14.8,36,0.00,,---,1.08,VWS V14.01,2013-05-03 17:14:00,
2013-05-03 12:19:00,55.9,29.4,30.24,NW,315,15.2,18.1,36,0.00,,---,1.08,VWS V14.01,2013-05-03 17:19:00,
2013-05-03 12:24:00,56.5,29.9,30.24,NW,315,9.2,9.2,36,0.00,,---,1.08,VWS V14.01,2013-05-03 17:24:00,
2013-05-03 12:29:00,56.5,29.9,30.24,North,0,16.8,16.8,36,0.00,,---,1.08,VWS V14.01,2013-05-03 17:29:00,
2013-05-03 12:34:00,57.2,30.5,30.24,North,0,14.8,15.9,36,0.00,,---,1.08,VWS V14.01,2013-05-03 17:34:00,
2013-05-03 12:40:00,56.7,29.3,30.24,NW,315,9.2,15.2,35,0.00,,---,1.08,VWS V14.01,2013-05-03 17:40:00,
2013-05-03 12:45:00,56.8,29.5,30.21,NW,315,13.2,13.2,35,0.00,,---,1.08,VWS V14.01,2013-05-03 17:45:00,
2013-05-03 12:50:00,56.3,29.0,30.21,NW,315,8.5,12.5,35,0.00,,---,1.08,VWS V14.01,2013-05-03 17:50:00,
2013-05-03 12:55:00,57.0,30.4,30.21,North,0,12.3,13.2,36,0.00,,---,1.08,VWS V14.01,2013-05-03 17:55:00,
2013-05-03 13:01:00,57.2,29.8,30.18,North,0,8.7,9.8,35,0.00,,---,1.08,VWS V14.01,2013-05-03 18:01:00,
2013-05-03 13:06:00,57.2,29.8,30.18,NNW,338,10.7,19.2,35,0.00,,---,1.08,VWS V14.01,2013-05-03 18:06:00,
2013-05-03 13:11:00,57.9,30.5,30.18,NW,315,8.1,10.3,35,0.00,,---,1.08,VWS V14.01,2013-05-03 18:11:00,
2013-05-03 13:16:00,57.0,29.7,30.21,NW,315,13.4,17.7,35,0.00,,---,1.08,VWS V14.01,2013-05-03 18:16:00,
2013-05-03 13:22:00,57.4,30.0,30.21,NW,315,9.8,17.2,35,0.00,,---,1.08,VWS V14.01,2013-05-03 18:22:00,
2013-05-03 13:27:00,58.5,30.9,30.21,NW,315,7.6,10.3,35,0.00,,---,1.08,VWS V14.01,2013-05-03 18:27:00,
2013-05-03 13:32:00,58.6,31.1,30.21,NW,315,8.5,13.2,35,0.00,,---,1.08,VWS V14.01,2013-05-03 18:32:00,
2013-05-03 13:37:00,58.3,30.8,30.21,NE,45,10.5,11.0,35,0.00,,---,1.08,VWS V14.01,2013-05-03 18:37:00,
2013-05-03 13:43:00,58.8,31.2,30.21,NNW,338,10.5,13.4,35,0.00,,---,1.08,VWS V14.01,2013-05-03 18:43:00,
2013-05-03 13:48:00,58.1,30.6,30.21,North,0,13.0,16.8,35,0.00,,---,1.08,VWS V14.01,2013-05-03 18:48:00,
2013-05-03 13:54:00,58.8,30.5,30.21,North,0,12.5,12.5,34,0.00,,---,1.08,VWS V14.01,2013-05-03 18:54:00,
2013-05-03 13:59:00,59.7,31.3,30.18,NW,315,6.5,15.2,34,0.00,,---,1.08,VWS V14.01,2013-05-03 18:59:00,
2013-05-03 14:04:00,59.7,31.3,30.18,North,0,5.4,10.7,34,0.00,,---,1.08,VWS V14.01,2013-05-03 19:04:00,
2013-05-03 14:09:00,60.1,31.6,30.18,NE,45,7.4,10.5,34,0.00,,---,1.08,VWS V14.01,2013-05-03 19:09:00,
2013-05-03 14:14:00,59.5,31.2,30.15,North,0,6.9,17.2,34,0.00,,---,1.08,VWS V14.01,2013-05-03 19:14:00,
2013-05-03 14:19:00,60.3,30.3,30.15,North,0,10.7,15.2,32,0.00,,---,1.08,VWS V14.01,2013-05-03 19:19:00,
2013-05-03 14:24:00,60.1,30.9,30.15,North,0,7.8,12.8,33,0.00,,---,1.08,VWS V14.01,2013-05-03 19:24:00,
2013-05-03 14:29:00,61.3,32.0,30.15,NW,315,8.5,10.1,33,0.00,,---,1.08,VWS V14.01,2013-05-03 19:29:00,
2013-05-03 14:34:00,60.4,31.2,30.15,NNW,338,12.1,12.1,33,0.00,,---,1.08,VWS V14.01,2013-05-03 19:34:00,
2013-05-03 14:39:00,59.5,28.1,30.15,North,0,15.4,15.4,30,0.00,,---,1.08,VWS V14.01,2013-05-03 19:39:00,
2013-05-03 14:44:00,59.9,30.0,30.15,North,0,13.6,13.6,32,0.00,,---,1.08,VWS V14.01,2013-05-03 19:44:00,
2013-05-03 14:49:00,60.8,30.0,30.15,North,0,7.8,12.8,31,0.00,,---,1.08,VWS V14.01,2013-05-03 19:49:00,
2013-05-03 14:54:00,59.4,27.9,30.15,North,0,15.7,15.7,30,0.00,,---,1.08,VWS V14.01,2013-05-03 19:54:00,
2013-05-03 15:00:00,60.1,28.6,30.12,NNE,22,10.5,12.8,30,0.00,,---,1.08,VWS V14.01,2013-05-03 20:00:00,
2013-05-03 15:05:00,61.0,27.7,30.12,North,0,17.0,17.0,28,0.00,,---,1.08,VWS V14.01,2013-05-03 20:05:00,
2013-05-03 15:10:00,60.4,27.2,30.12,North,0,10.5,10.5,28,0.00,,---,1.08,VWS V14.01,2013-05-03 20:10:00,
2013-05-03 15:15:00,61.0,26.8,30.15,NNW,338,19.9,19.9,27,0.00,,---,1.08,VWS V14.01,2013-05-03 20:15:00,
2013-05-03 15:20:00,59.4,26.3,30.15,NNE,22,10.3,10.3,28,0.00,,---,1.08,VWS V14.01,2013-05-03 20:20:00,
2013-05-03 15:25:00,59.4,26.3,30.15,NNW,338,10.1,10.5,28,0.00,,---,1.08,VWS V14.01,2013-05-03 20:25:00,
2013-05-03 15:30:00,59.4,26.3,30.18,NNW,338,19.0,19.0,28,0.00,,---,1.08,VWS V14.01,2013-05-03 20:30:00,
2013-05-03 15:35:00,57.9,25.9,30.18,North,0,4.9,10.7,29,0.00,,---,1.08,VWS V14.01,2013-05-03 20:35:00,
2013-05-03 15:40:00,60.1,28.6,30.18,NW,315,8.1,10.1,30,0.00,,---,1.08,VWS V14.01,2013-05-03 20:40:00,
2013-05-03 15:46:00,60.6,27.4,30.12,NNE,22,12.5,12.5,28,0.00,,---,1.08,VWS V14.01,2013-05-03 20:46:00,
2013-05-03 15:51:00,60.4,27.2,30.12,NW,315,12.8,15.9,28,0.00,,---,1.08,VWS V14.01,2013-05-03 20:51:00,
2013-05-03 15:56:00,61.0,26.8,30.12,NNE,22,8.5,12.3,27,0.00,,---,1.08,VWS V14.01,2013-05-03 20:56:00,
2013-05-03 16:01:00,59.9,25.9,30.12,NNE,22,13.9,19.5,27,0.00,,---,1.08,VWS V14.01,2013-05-03 21:01:00,
2013-05-03 16:06:00,59.5,25.5,30.12,NNE,22,5.6,10.3,27,0.00,,---,1.08,VWS V14.01,2013-05-03 21:06:00,
2013-05-03 16:11:00,59.5,26.4,30.12,NNW,338,9.2,9.2,28,0.00,,---,1.08,VWS V14.01,2013-05-03 21:11:00,
2013-05-03 16:17:00,59.7,25.7,30.12,NNW,338,12.3,15.4,27,0.00,,---,1.08,VWS V14.01,2013-05-03 21:17:00,
2013-05-03 16:22:00,58.6,25.6,30.12,NNW,338,6.5,13.4,28,0.00,,---,1.08,VWS V14.01,2013-05-03 21:22:00,
2013-05-03 16:27:00,59.7,25.7,30.12,NW,315,8.1,12.5,27,0.00,,---,1.08,VWS V14.01,2013-05-03 21:27:00,
2013-05-03 16:33:00,60.3,26.2,30.12,NNE,22,6.9,10.5,27,0.00,,---,1.08,VWS V14.01,2013-05-03 21:33:00,
2013-05-03 16:38:00,60.4,26.3,30.12,North,0,7.6,12.1,27,0.00,,---,1.08,VWS V14.01,2013-05-03 21:38:00,
2013-05-03 16:43:00,60.4,26.3,30.09,NNW,338,10.3,17.7,27,0.00,,---,1.08,VWS V14.01,2013-05-03 21:43:00,
2013-05-03 16:48:00,60.4,26.3,30.09,NNW,338,4.3,12.3,27,0.00,,---,1.08,VWS V14.01,2013-05-03 21:48:00,
2013-05-03 16:53:00,60.8,25.7,30.09,North,0,8.1,11.9,26,0.00,,---,1.08,VWS V14.01,2013-05-03 21:53:00,
2013-05-03 16:59:00,61.0,25.9,30.09,North,0,9.6,10.5,26,0.00,,---,1.08,VWS V14.01,2013-05-03 21:59:00,
2013-05-03 17:04:00,60.3,26.2,30.09,North,0,10.1,17.5,27,0.00,,---,1.08,VWS V14.01,2013-05-03 22:04:00,
2013-05-03 17:10:00,58.1,25.2,30.09,NE,45,10.3,12.3,28,0.00,,---,1.08,VWS V14.01,2013-05-03 22:10:00,
2013-05-03 17:15:00,58.1,26.0,30.09,NNE,22,5.4,9.8,29,0.00,,---,1.08,VWS V14.01,2013-05-03 22:15:00,
2013-05-03 17:20:00,59.4,26.3,30.09,NNW,338,7.8,12.8,28,0.00,,---,1.08,VWS V14.01,2013-05-03 22:20:00,
2013-05-03 17:26:00,60.3,27.0,30.09,NE,45,9.2,10.5,28,0.00,,---,1.08,VWS V14.01,2013-05-03 22:26:00,
2013-05-03 17:31:00,59.7,26.6,30.09,NW,315,7.6,9.2,28,0.00,,---,1.08,VWS V14.01,2013-05-03 22:31:00,
2013-05-03 17:36:00,59.7,25.7,30.09,NNE,22,8.7,13.0,27,0.00,,---,1.08,VWS V14.01,2013-05-03 22:36:00,
2013-05-03 17:41:00,59.9,26.7,30.09,NNW,338,8.7,9.8,28,0.00,,---,1.08,VWS V14.01,2013-05-03 22:41:00,
2013-05-03 17:46:00,59.9,26.7,30.06,NE,45,9.4,14.5,28,0.00,,---,1.08,VWS V14.01,2013-05-03 22:46:00,
2013-05-03 17:51:00,60.1,26.0,30.06,NNW,338,8.7,16.3,27,0.00,,---,1.08,VWS V14.01,2013-05-03 22:51:00,
2013-05-03 17:56:00,59.7,25.7,30.06,NNW,338,13.2,13.2,27,0.00,,---,1.08,VWS V14.01,2013-05-03 22:56:00,
2013-05-03 18:02:00,59.5,25.5,30.09,North,0,6.5,10.5,27,0.00,,---,1.08,VWS V14.01,2013-05-03 23:02:00,
2013-05-03 18:07:00,59.4,24.5,30.09,NNW,338,9.0,14.8,26,0.00,,---,1.08,VWS V14.01,2013-05-03 23:07:00,
2013-05-03 18:12:00,59.7,26.6,30.09,NW,315,3.1,7.6,28,0.00,,---,1.08,VWS V14.01,2013-05-03 23:12:00,
2013-05-03 18:17:00,59.5,26.4,30.09,NW,315,7.2,7.8,28,0.00,,---,1.08,VWS V14.01,2013-05-03 23:17:00,
2013-05-03 18:22:00,59.4,26.3,30.09,North,0,8.1,17.2,28,0.00,,---,1.08,VWS V14.01,2013-05-03 23:22:00,
2013-05-03 18:27:00,59.4,25.4,30.09,NNW,338,10.1,10.5,27,0.00,,---,1.08,VWS V14.01,2013-05-03 23:27:00,
2013-05-03 18:32:00,59.2,26.1,30.09,North,0,15.4,15.4,28,0.00,,---,1.08,VWS V14.01,2013-05-03 23:32:00,
2013-05-03 18:37:00,59.2,25.2,30.09,NNW,338,11.0,11.0,27,0.00,,---,1.08,VWS V14.01,2013-05-03 23:37:00,
2013-05-03 18:42:00,58.8,26.6,30.09,North,0,5.8,14.5,29,0.00,,---,1.08,VWS V14.01,2013-05-03 23:42:00,
2013-05-03 18:47:00,58.5,26.3,30.09,North,0,2.9,8.1,29,0.00,,---,1.08,VWS V14.01,2013-05-03 23:47:00,
2013-05-03 18:53:00,58.3,25.3,30.09,West,270,6.0,9.8,28,0.00,,---,1.08,VWS V14.01,2013-05-03 23:53:00,
2013-05-03 18:58:00,58.3,25.3,30.09,North,0,5.8,10.7,28,0.00,,---,1.08,VWS V14.01,2013-05-03 23:58:00,
2013-05-03 19:04:00,57.9,26.7,30.09,NNE,22,7.8,7.8,30,0.00,,---,1.08,VWS V14.01,2013-05-04 00:04:00,
2013-05-03 19:09:00,57.6,26.4,30.09,East,90,5.4,10.3,30,0.00,,---,1.08,VWS V14.01,2013-05-04 00:09:00,
2013-05-03 19:14:00,57.6,27.2,30.09,North,0,7.6,7.6,31,0.00,,---,1.08,VWS V14.01,2013-05-04 00:14:00,
2013-05-03 19:19:00,57.2,26.1,30.09,North,0,11.9,11.9,30,0.00,,---,1.08,VWS V14.01,2013-05-04 00:19:00,
2013-05-03 19:24:00,56.8,25.8,30.09,North,0,4.9,12.1,30,0.00,,---,1.08,VWS V14.01,2013-05-04 00:24:00,
2013-05-03 19:29:00,56.7,26.4,30.12,NE,45,10.5,10.5,31,0.00,,---,1.08,VWS V14.01,2013-05-04 00:29:00,
2013-05-03 19:34:00,56.3,26.8,30.12,NNE,22,3.8,5.8,32,0.00,,---,1.08,VWS V14.01,2013-05-04 00:34:00,
2013-05-03 19:40:00,55.6,26.2,30.12,NNE,22,6.5,8.1,32,0.00,,---,1.08,VWS V14.01,2013-05-04 00:40:00,
2013-05-03 19:45:00,55.0,25.7,30.09,NNE,22,5.6,7.8,32,0.00,,---,1.08,VWS V14.01,2013-05-04 00:45:00,
2013-05-03 19:50:00,54.5,26.0,30.09,North,0,6.3,10.7,33,0.00,,---,1.08,VWS V14.01,2013-05-04 00:50:00,
2013-05-03 19:55:00,54.1,26.4,30.09,North,0,6.0,6.0,34,0.00,,---,1.08,VWS V14.01,2013-05-04 00:55:00,
2013-05-03 20:00:00,54.0,27.0,30.09,NE,45,6.5,6.7,35,0.00,,---,1.08,VWS V14.01,2013-05-04 01:00:00,
2013-05-03 20:05:00,53.6,26.6,30.09,NNW,338,10.5,10.5,35,0.00,,---,1.08,VWS V14.01,2013-05-04 01:05:00,
2013-05-03 20:10:00,53.2,27.0,30.09,NW,315,5.8,5.8,36,0.00,,---,1.08,VWS V14.01,2013-05-04 01:10:00,
2013-05-03 20:15:00,53.1,26.8,30.09,NNE,22,4.0,6.5,36,0.00,,---,1.08,VWS V14.01,2013-05-04 01:15:00,
2013-05-03 20:20:00,52.7,26.5,30.09,NE,45,2.0,7.4,36,0.00,,---,1.08,VWS V14.01,2013-05-04 01:20:00,
2013-05-03 20:25:00,52.3,26.2,30.09,ENE,68,8.1,8.1,36,0.00,,---,1.08,VWS V14.01,2013-05-04 01:25:00,
2013-05-03 20:30:00,52.2,26.0,30.09,North,0,4.9,4.9,36,0.00,,---,1.08,VWS V14.01,2013-05-04 01:30:00,
2013-05-03 20:36:00,51.6,26.2,30.09,NE,45,5.6,6.0,37,0.00,,---,1.08,VWS V14.01,2013-05-04 01:36:00,
2013-05-03 20:41:00,51.3,25.9,30.09,NW,315,3.6,5.8,37,0.00,,---,1.08,VWS V14.01,2013-05-04 01:41:00,
2013-05-03 20:46:00,50.9,25.6,30.09,NNW,338,7.8,7.8,37,0.00,,---,1.08,VWS V14.01,2013-05-04 01:46:00,
2013-05-03 20:51:00,50.7,25.4,30.09,NNE,22,8.5,8.5,37,0.00,,---,1.08,VWS V14.01,2013-05-04 01:51:00,
2013-05-03 20:56:00,50.4,25.1,30.09,NNE,22,5.8,6.0,37,0.00,,---,1.08,VWS V14.01,2013-05-04 01:56:00,
2013-05-03 21:01:00,50.2,24.9,30.09,North,0,2.5,6.5,37,0.00,,---,1.08,VWS V14.01,2013-05-04 02:01:00,
2013-05-03 21:06:00,49.8,25.2,30.09,North,0,4.3,5.8,38,0.00,,---,1.08,VWS V14.01,2013-05-04 02:06:00,
2013-05-03 21:11:00,49.6,25.1,30.09,NE,45,2.9,6.3,38,0.00,,---,1.08,VWS V14.01,2013-05-04 02:11:00,
2013-05-03 21:16:00,49.3,24.8,30.09,North,0,2.0,3.8,38,0.00,,---,1.08,VWS V14.01,2013-05-04 02:16:00,
2013-05-03 21:21:00,48.7,24.9,30.09,NNE,22,5.4,5.4,39,0.00,,---,1.08,VWS V14.01,2013-05-04 02:21:00,
2013-05-03 21:26:00,48.6,24.7,30.09,NNE,22,2.7,2.7,39,0.00,,---,1.08,VWS V14.01,2013-05-04 02:26:00,
2013-05-03 21:32:00,48.2,25.0,30.09,NNW,338,3.6,4.7,40,0.00,,---,1.08,VWS V14.01,2013-05-04 02:32:00,
2013-05-03 21:37:00,47.7,25.1,30.09,North,0,2.7,3.6,41,0.00,,---,1.08,VWS V14.01,2013-05-04 02:37:00,
2013-05-03 21:42:00,47.3,24.8,30.09,North,0,2.5,4.3,41,0.00,,---,1.08,VWS V14.01,2013-05-04 02:42:00,
2013-05-03 21:47:00,46.9,25.1,30.09,NNW,338,2.7,3.8,42,0.00,,---,1.08,VWS V14.01,2013-05-04 02:47:00,
2013-05-03 21:53:00,46.6,25.3,30.09,NNW,338,4.3,4.7,43,0.00,,---,1.08,VWS V14.01,2013-05-04 02:53:00,
2013-05-03 21:58:00,46.4,25.1,30.09,North,0,2.9,3.1,43,0.00,,---,1.08,VWS V14.01,2013-05-04 02:58:00,
2013-05-03 22:03:00,46.2,25.5,30.09,NNW,338,3.1,3.8,44,0.00,,---,1.08,VWS V14.01,2013-05-04 03:03:00,
2013-05-03 22:08:00,46.0,25.9,30.09,NNW,338,0.0,4.3,45,0.00,,---,1.08,VWS V14.01,2013-05-04 03:08:00,
2013-05-03 22:14:00,45.9,25.7,30.09,NNW,338,1.6,3.1,45,0.00,,---,1.08,VWS V14.01,2013-05-04 03:14:00,
2013-05-03 22:19:00,45.7,25.6,30.09,North,0,2.9,3.1,45,0.00,,---,1.08,VWS V14.01,2013-05-04 03:19:00,
2013-05-03 22:24:00,45.5,25.4,30.09,North,0,2.7,2.9,45,0.00,,---,1.08,VWS V14.01,2013-05-04 03:24:00,
2013-05-03 22:29:00,45.5,25.4,30.09,North,0,3.1,4.3,45,0.00,,---,1.08,VWS V14.01,2013-05-04 03:29:00,
2013-05-03 22:35:00,45.3,25.2,30.09,NNW,338,2.5,2.9,45,0.00,,---,1.08,VWS V14.01,2013-05-04 03:35:00,
2013-05-03 22:40:00,45.3,25.8,30.09,NNW,338,0.0,2.5,46,0.00,,---,1.08,VWS V14.01,2013-05-04 03:40:00,
2013-05-03 22:45:00,45.0,26.0,30.09,NW,315,1.3,2.5,47,0.00,,---,1.08,VWS V14.01,2013-05-04 03:45:00,
2013-05-03 22:50:00,44.6,25.6,30.09,NW,315,2.0,3.4,47,0.00,,---,1.08,VWS V14.01,2013-05-04 03:50:00,
2013-05-03 22:56:00,44.2,25.8,30.09,NNW,338,1.1,2.5,48,0.00,,---,1.08,VWS V14.01,2013-05-04 03:56:00,
2013-05-03 23:01:00,44.1,26.1,30.09,NNW,338,2.5,2.9,49,0.00,,---,1.08,VWS V14.01,2013-05-04 04:01:00,
2013-05-03 23:03:00,44.1,26.1,30.09,NW,315,2.5,2.7,49,0.00,,---,1.08,VWS V14.01,2013-05-04 04:03:00,
2013-05-03 23:04:00,44.1,26.1,30.09,NNW,338,2.9,4.3,49,0.00,,---,1.08,VWS V14.01,2013-05-04 04:04:00,
2013-05-03 23:05:00,43.9,26.5,30.09,NW,315,3.6,3.6,50,0.00,,---,1.08,VWS V14.01,2013-05-04 04:05:00,
2013-05-03 23:10:00,43.7,26.3,30.09,NNW,338,2.9,3.1,50,0.00,,---,1.08,VWS V14.01,2013-05-04 04:10:00,
2013-05-03 23:15:00,43.7,26.3,30.09,North,0,0.9,3.6,50,0.00,,---,1.08,VWS V14.01,2013-05-04 04:15:00,
2013-05-03 23:16:00,43.5,26.1,30.09,NW,315,1.6,2.9,50,0.00,,---,1.08,VWS V14.01,2013-05-04 04:16:00,
2013-05-03 23:21:00,43.3,26.0,30.09,NNW,338,1.3,3.8,50,0.00,,---,1.08,VWS V14.01,2013-05-04 04:21:00,
2013-05-03 23:26:00,43.3,26.0,30.09,North,0,2.7,4.0,50,0.00,,---,1.08,VWS V14.01,2013-05-04 04:26:00,
2013-05-03 23:31:00,43.0,25.6,30.09,NNW,338,1.6,2.7,50,0.00,,---,1.08,VWS V14.01,2013-05-04 04:31:00,
2013-05-03 23:36:00,42.8,25.9,30.09,NNW,338,3.1,3.8,51,0.00,,---,1.08,VWS V14.01,2013-05-04 04:36:00,
2013-05-03 23:41:00,42.4,25.6,30.09,NW,315,2.5,2.5,51,0.00,,---,1.08,VWS V14.01,2013-05-04 04:41:00,
2013-05-03 23:46:00,42.4,25.6,30.06,NW,315,1.6,4.3,51,0.00,,---,1.08,VWS V14.01,2013-05-04 04:46:00,
2013-05-03 23:52:00,42.3,25.4,30.06,NW,315,2.9,2.9,51,0.00,,---,1.08,VWS V14.01,2013-05-04 04:52:00,
2013-05-03 23:57:00,41.7,25.4,30.06,NW,315,1.1,3.1,52,0.00,,---,1.08,VWS V14.01,2013-05-04 04:57:00,